Latest Weather Observations for Kalumburu

IDW60801

Issued at 10:03 pm WST Wednesday 31 August 2016 (issued every 30 minutes, with the page automatically refreshed every 10 minutes)

About weather observations | Map of weather stations | Latest weather observations for WA | Other Formats
Station Details ID: 001019 Name: KALUMBURU Lat: -14.30 Lon: 126.65 Height: 23.0 m
Data from the previous 72 hours. | See also: Recent months at Kalumburu
Date/Time
WST
Temp
°C
App
Temp
°C
Dew
Point
°C
Rel
Hum
%
Delta-T
°C
Wind Press
QNH
hPa
Press
MSL
hPa
Rain since
9am
mm
Dir  Spd
km/h
Gust
km/h
Spd
kts
Gust
kts
31/10:00pm 25.6 29.5 21.1 76 3.0 WNW 2 7 1 4 1014.9 1014.8 0.0
31/09:30pm 26.1 29.0 21.1 74 3.3 WNW 7 9 4 5 1014.9 1014.8 0.0
31/09:00pm 26.4 29.4 20.9 72 3.6 NW 6 9 3 5 1014.9 1014.8 0.0
31/08:30pm 26.6 29.5 21.1 72 3.6 NW 7 11 4 6 1014.8 1014.7 0.0
31/08:00pm 26.8 29.5 21.3 72 3.7 NW 9 15 5 8 1014.5 1014.4 0.0
31/07:30pm 26.9 29.2 21.4 72 3.7 NW 11 17 6 9 1014.2 1014.1 0.0
31/07:00pm 27.1 29.3 21.8 73 3.5 NNW 13 19 7 10 1014.1 1014.0 0.0
31/06:30pm 27.3 29.3 21.6 71 3.8 NNW 13 19 7 10 1013.7 1013.6 0.0
31/06:00pm 27.6 29.1 21.2 68 4.3 NNW 15 24 8 13 1013.3 1013.2 0.0
31/05:30pm 28.0 28.6 20.3 63 5.1 NNW 17 24 9 13 1013.0 1012.9 0.0
31/05:00pm 28.8 28.5 19.1 55 6.3 NNW 19 26 10 14 1012.6 1012.5 0.0
31/04:30pm 29.8 29.4 18.9 52 7.1 NNW 19 24 10 13 1012.3 1012.2 0.0
31/04:00pm 30.3 29.5 18.4 49 7.7 N 20 30 11 16 1012.1 1012.0 0.0
31/03:30pm 31.4 30.0 18.0 44 8.6 N 22 32 12 17 1011.8 1011.7 0.0
31/03:00pm 31.9 31.1 18.5 45 8.7 N 20 30 11 16 1011.8 1011.7 0.0
31/02:30pm 32.4 31.3 17.8 41 9.4 N 20 30 11 16 1011.8 1011.7 0.0
31/02:00pm 32.8 32.1 18.6 43 9.2 NNW 20 32 11 17 1012.1 1012.0 0.0
31/01:30pm 32.9 31.8 18.7 43 9.3 N 22 33 12 18 1012.6 1012.5 0.0
31/01:00pm 32.1 30.9 18.3 44 8.9 N 22 30 12 16 1013.2 1013.1 0.0
31/12:30pm 32.3 31.8 19.2 46 8.6 NW 20 30 11 16 1013.4 1013.3 0.0
31/12:00pm 32.7 32.4 19.2 44 8.9 NW 19 30 10 16 1013.8 1013.7 0.0
31/11:30am 32.3 32.4 19.2 46 8.6 NNW 17 26 9 14 1014.3 1014.2 0.0
31/11:00am 30.6 31.9 19.3 51 7.4 NW 11 19 6 10 1014.9 1014.8 0.0
31/10:30am 30.9 31.8 18.3 47 8.1 NNW 11 20 6 11 1015.4 1015.3 0.0
31/10:00am 31.5 32.8 18.5 46 8.4 N 9 17 5 9 1015.8 1015.7 0.0
31/09:30am 31.0 32.0 18.7 48 8.0 NE 11 17 6 9 1016.1 1016.0 0.0
31/09:00am 30.2 31.2 18.6 49 7.5 N 11 20 6 11 1016.4 1016.3 0.0
31/08:30am 30.6 32.4 19.6 51 7.2 N 9 15 5 8 1016.4 1016.3 0.0
31/08:00am 29.1 30.7 19.1 54 6.5 NNE 9 15 5 8 1016.2 1016.1 0.0
31/07:30am 27.9 30.8 19.9 61 5.2 NW 4 9 2 5 1016.0 1015.9 0.0
31/07:00am 26.7 30.0 20.8 70 3.9 NNW 4 7 2 4 1015.7 1015.6 0.0
31/06:30am 24.3 29.0 22.0 87 1.5 CALM 0 0 0 0 1015.5 1015.4 0.0
31/06:00am 22.1 25.9 20.2 89 1.2 CALM 0 0 0 0 1015.1 1015.0 0.0
31/05:30am 21.5 24.9 19.4 88 1.3 CALM 0 0 0 0 1014.7 1014.6 0.0
31/05:00am 21.8 25.5 19.9 89 1.2 CALM 0 0 0 0 1014.4 1014.3 0.0
31/04:30am 21.9 25.5 19.8 88 1.3 CALM 0 0 0 0 1014.1 1014.0 0.0
31/04:00am 22.1 25.8 20.0 88 1.3 CALM 0 0 0 0 1013.9 1013.8 0.0
31/03:30am 22.4 25.3 19.9 86 1.6 S 4 6 2 3 1013.8 1013.7 0.0
31/03:00am 22.9 26.4 20.4 86 1.6 S 2 6 1 3 1013.8 1013.7 0.0
31/02:30am 22.4 25.0 20.1 87 1.5 S 6 9 3 5 1013.8 1013.7 0.0
31/02:00am 22.6 26.1 20.3 87 1.5 S 2 7 1 4 1013.7 1013.6 0.0
31/01:30am 22.9 26.1 20.4 86 1.6 S 4 6 2 3 1013.9 1013.8 0.0
31/01:00am 23.2 27.3 20.7 86 1.6 CALM 0 0 0 0 1014.1 1014.0 0.0
31/12:30am 23.1 26.9 20.1 83 1.9 CALM 0 0 0 0 1014.2 1014.1 0.0
31/12:00am 24.1 28.0 21.2 84 1.9 SW 2 6 1 3 1014.4 1014.3 0.0
 
Date/Time
WST
Temp
°C
App
Temp
°C
Dew
Point
°C
Rel
Hum
%
Delta-T
°C
Wind Press
QNH
hPa
Press
MSL
hPa
Rain since
9am
mm
Dir  Spd
km/h
Gust
km/h
Spd
kts
Gust
kts
30/11:30pm 24.1 27.8 20.8 82 2.2 WSW 2 7 1 4 1014.5 1014.4 0.0
30/11:00pm 24.1 27.9 20.2 79 2.5 CALM 0 0 0 0 1014.8 1014.7 0.0
30/10:30pm 25.0 29.0 20.5 76 2.9 CALM 0 0 0 0 1014.9 1014.8 0.0
30/10:00pm 26.3 29.4 21.1 73 3.4 N 6 9 3 5 1015.0 1014.9 0.0
30/09:30pm 26.3 29.2 21.1 73 3.4 N 7 11 4 6 1015.1 1015.0 0.0
30/09:00pm 26.4 29.2 20.9 72 3.6 N 7 11 4 6 1015.1 1015.0 0.0
30/08:30pm 26.7 29.3 21.2 72 3.6 N 9 17 5 9 1015.0 1014.9 0.0
30/08:00pm 26.8 29.0 21.1 71 3.8 NNW 11 15 6 8 1014.7 1014.6 0.0
30/07:30pm 26.8 28.9 20.9 70 3.9 N 11 15 6 8 1014.3 1014.2 0.0
30/07:00pm 27.0 28.6 20.8 69 4.1 NNW 13 19 7 10 1013.9 1013.8 0.0
30/06:30pm 27.1 28.5 20.4 66 4.4 NNW 13 19 7 10 1013.6 1013.5 0.0
30/06:00pm 27.3 28.5 20.6 67 4.4 NNW 15 20 8 11 1013.2 1013.1 0.0
30/05:30pm 27.6 28.7 20.4 65 4.7 NNW 15 22 8 12 1012.8 1012.7 0.0
30/05:00pm 28.2 28.1 20.0 61 5.4 N 20 28 11 15 1012.2 1012.1 0.0
30/04:30pm 29.2 29.1 19.5 56 6.3 NNW 19 28 10 15 1011.9 1011.8 0.0
30/04:00pm 30.2 29.6 18.9 50 7.3 N 20 30 11 16 1011.8 1011.7 0.0
30/03:30pm 31.1 30.7 18.8 48 8.0 N 19 30 10 16 1011.7 1011.6 0.0
30/03:00pm 32.2 31.9 19.1 45 8.6 NNW 19 28 10 15 1011.5 1011.4 0.0
30/02:30pm 31.8 31.6 19.4 47 8.1 NNW 19 30 10 16 1011.5 1011.4 0.0
30/02:00pm 32.1 31.6 19.0 45 8.6 NNW 20 28 11 15 1011.8 1011.7 0.0
30/01:30pm 32.1 31.6 19.0 45 8.6 NNW 20 28 11 15 1012.0 1011.9 0.0
30/01:00pm 32.3 31.8 19.2 46 8.6 NNW 20 30 11 16 1012.3 1012.2 0.0
30/12:30pm 32.3 32.2 19.5 46 8.4 NW 19 30 10 16 1012.7 1012.6 0.0
30/12:00pm 32.4 32.9 20.0 48 8.2 NW 17 26 9 14 1013.3 1013.2 0.0
30/11:30am 31.9 32.1 20.2 50 7.8 NW 19 28 10 15 1013.7 1013.6 0.0
30/11:00am 31.6 31.7 19.2 47 8.1 NNW 17 20 9 11 1014.5 1014.4 0.0
30/10:30am 31.8 32.5 20.4 51 7.6 N 17 24 9 13 1014.8 1014.7 0.0
30/10:00am 31.1 31.9 19.8 51 7.4 N 15 24 8 13 1015.4 1015.3 0.0
30/09:30am 29.6 30.0 19.9 56 6.4 N 17 20 9 11 1015.9 1015.8 0.0
30/09:00am 29.3 30.6 20.2 58 6.0 NNW 13 20 7 11 1016.1 1016.0 0.0
30/08:30am 27.9 27.9 18.0 55 6.3 N 15 20 8 11 1016.3 1016.2 0.0
30/08:00am 28.7 31.3 21.2 64 5.0 NNW 9 13 5 7 1015.8 1015.7 0.0
30/07:30am 27.1 30.4 21.4 71 3.8 NE 6 11 3 6 1015.5 1015.4 0.0
30/07:00am 24.5 28.8 21.2 82 2.2 CALM 0 0 0 0 1015.3 1015.2 0.0
30/06:30am 22.2 26.2 20.5 90 1.1 CALM 0 0 0 0 1015.2 1015.1 0.0
30/06:00am 20.3 23.3 18.4 89 1.2 CALM 0 0 0 0 1014.8 1014.7 0.0
30/05:30am 20.6 23.4 18.9 90 1.1 S 2 6 1 3 1014.7 1014.6 0.0
30/05:00am 20.6 23.8 18.9 90 1.1 CALM 0 0 0 0 1014.1 1014.0 0.0
30/04:30am 20.2 23.1 18.3 89 1.2 CALM 0 0 0 0 1013.6 1013.5 0.0
30/04:00am 20.7 22.7 18.8 89 1.2 NNE 6 6 3 3 1013.3 1013.2 0.0
30/03:30am 20.6 23.7 18.7 89 1.2 CALM 0 0 0 0 1013.3 1013.2 0.0
30/03:00am 21.1 24.4 19.2 89 1.2 CALM 0 0 0 0 1013.3 1013.2 0.0
30/02:30am 21.2 24.5 19.1 88 1.3 CALM 0 0 0 0 1013.3 1013.2 0.0
30/02:00am 21.4 24.7 19.1 87 1.5 CALM 0 0 0 0 1013.2 1013.1 0.0
30/01:30am 21.7 25.0 19.1 85 1.6 CALM 0 0 0 0 1013.4 1013.3 0.0
30/01:00am 22.3 25.9 19.8 86 1.6 CALM 0 0 0 0 1013.7 1013.6 0.0
30/12:30am 22.6 26.2 19.8 84 1.8 CALM 0 0 0 0 1013.8 1013.7 0.0
30/12:00am 22.9 26.6 19.9 83 1.9 CALM 0 0 0 0 1013.8 1013.7 0.0
 
Date/Time
WST
Temp
°C
App
Temp
°C
Dew
Point
°C
Rel
Hum
%
Delta-T
°C
Wind Press
QNH
hPa
Press
MSL
hPa
Rain since
9am
mm
Dir  Spd
km/h
Gust
km/h
Spd
kts
Gust
kts
29/11:30pm 23.7 26.2 19.8 79 2.5 NNE 6 9 3 5 1013.9 1013.8 0.0
29/11:00pm 23.6 27.2 19.7 79 2.5 CALM 0 7 0 4 1014.0 1013.9 0.0
29/10:30pm 24.7 27.4 20.2 76 2.9 NNE 6 9 3 5 1013.8 1013.7 0.0
29/10:00pm 25.2 27.6 20.0 73 3.4 NNE 7 9 4 5 1013.8 1013.7 0.0
29/09:30pm 26.2 28.4 20.5 71 3.7 N 9 15 5 8 1013.9 1013.8 0.0
29/09:00pm 26.0 28.1 20.1 70 3.8 NNE 9 13 5 7 1014.1 1014.0 0.0
29/08:30pm 26.2 28.3 20.1 69 4.0 N 9 13 5 7 1014.2 1014.1 0.0
29/08:00pm 26.4 28.0 20.0 68 4.2 N 11 17 6 9 1013.9 1013.8 0.0
29/07:30pm 26.6 28.0 20.4 69 4.1 N 13 17 7 9 1013.5 1013.4 0.0
29/07:00pm 26.8 28.1 20.9 70 3.9 N 15 20 8 11 1013.0 1012.9 0.0
29/06:30pm 26.8 28.0 20.6 69 4.1 N 15 20 8 11 1012.7 1012.6 0.0
29/06:00pm 27.0 28.0 21.1 70 3.9 N 17 22 9 12 1012.3 1012.2 0.0
29/05:30pm 27.3 28.4 21.3 69 4.0 N 17 24 9 13 1011.9 1011.8 0.0
29/05:00pm 27.7 28.2 20.8 66 4.6 N 19 30 10 16 1011.6 1011.5 0.0
29/04:30pm 29.1 28.9 20.5 59 5.7 N 22 33 12 18 1011.4 1011.3 0.0
29/04:00pm 29.9 30.1 20.5 57 6.2 NNW 20 28 11 15 1011.0 1010.9 0.0
29/03:30pm 30.6 29.6 18.0 47 8.1 NNW 20 30 11 16 1010.9 1010.8 0.0
29/03:00pm 31.2 30.2 18.9 48 8.0 NNW 22 32 12 17 1010.8 1010.7 0.0
29/02:30pm 31.6 29.9 17.1 41 9.2 NNW 22 32 12 17 1010.6 1010.5 0.0
29/02:00pm 31.0 28.8 17.0 43 8.9 NW 24 32 13 17 1010.5 1010.4 0.0
29/01:30pm 31.3 29.8 17.6 44 8.8 NNW 22 32 12 17 1010.7 1010.6 0.0
29/01:00pm 31.4 30.6 18.4 46 8.4 NNW 20 32 11 17 1011.2 1011.1 0.0
29/12:30pm 31.5 30.5 18.8 46 8.3 NNW 22 30 12 16 1011.4 1011.3 0.0
29/12:00pm 31.7 31.3 19.3 47 8.1 N 20 32 11 17 1011.7 1011.6 0.0
29/11:30am 31.1 30.1 18.8 48 8.0 NNW 22 32 12 17 1012.0 1011.9 0.0
29/11:00am 31.5 31.1 18.8 46 8.3 NNW 19 30 10 16 1012.3 1012.2 0.0
29/10:30am 31.3 30.8 18.6 46 8.2 NNW 19 28 10 15 1012.6 1012.5 0.0
29/10:00am 30.6 30.5 18.7 49 7.7 N 17 24 9 13 1013.0 1012.9 0.0
29/09:30am 30.2 30.2 18.9 50 7.3 NNW 17 24 9 13 1013.5 1013.4 0.0
29/09:00am 30.3 31.3 20.2 54 6.7 N 15 24 8 13 1013.8 1013.7 0.0
29/08:30am 29.1 30.7 20.0 58 6.0 NNW 11 19 6 10 1013.8 1013.7 0.0
29/08:00am 28.2 29.5 19.4 59 5.7 NNW 11 15 6 8 1013.8 1013.7 0.0
29/07:30am 27.0 30.6 20.6 68 4.2 NW 2 7 1 4 1013.7 1013.6 0.0
29/07:00am 25.2 29.4 20.9 77 2.8 CALM 0 0 0 0 1013.5 1013.4 0.0
29/06:30am 22.5 26.6 20.8 90 1.1 CALM 0 0 0 0 1013.4 1013.3 0.0
29/06:00am 20.7 23.9 18.8 89 1.2 CALM 0 6 0 3 1013.0 1012.9 0.0
29/05:30am 20.9 24.2 19.0 89 1.2 CALM 0 0 0 0 1012.6 1012.5 0.0
29/05:00am 21.3 24.3 19.2 88 1.3 ENE 2 7 1 4 1012.3 1012.2 0.0
29/04:30am 21.3 23.9 19.2 88 1.3 E 4 9 2 5 1012.3 1012.2 0.0
29/04:00am 21.4 24.8 19.3 88 1.3 CALM 0 0 0 0 1012.2 1012.1 0.0
29/03:30am 21.3 24.6 19.0 87 1.5 CALM 0 0 0 0 1012.3 1012.2 0.0
29/03:00am 21.5 24.8 19.2 87 1.5 CALM 0 0 0 0 1012.4 1012.3 0.0
29/02:30am 21.7 25.1 19.4 87 1.5 CALM 0 0 0 0 1012.4 1012.3 0.0
29/02:00am 22.1 25.6 19.6 86 1.6 CALM 0 0 0 0 1012.5 1012.4 0.0
29/01:30am 22.6 26.4 20.1 86 1.6 CALM 0 0 0 0 1012.5 1012.4 0.0
29/01:00am 22.4 26.0 19.8 85 1.7 CALM 0 0 0 0 1012.8 1012.7 0.0
29/12:30am 22.6 26.2 19.8 84 1.8 CALM 0 0 0 0 1013.0 1012.9 0.0
29/12:00am 23.0 26.7 20.0 83 1.9 CALM 0 0 0 0 1013.2 1013.1 0.0
 
Date/Time
WST
Temp
°C
App
Temp
°C
Dew
Point
°C
Rel
Hum
%
Delta-T
°C
Wind Press
QNH
hPa
Press
MSL
hPa
Rain since
9am
mm
Dir  Spd
km/h
Gust
km/h
Spd
kts
Gust
kts
28/11:30pm 23.4 27.1 20.0 81 2.2 CALM 0 6 0 3 1013.3 1013.2 0.0
28/11:00pm 23.3 25.7 19.7 80 2.3 ENE 6 7 3 4 1013.4 1013.3 0.0
28/10:30pm 24.1 27.3 19.8 77 2.8 NE 2 7 1 4 1013.6 1013.5 0.0

Other Formats:

Comma delimited format used in spreadsheet applications
http://www.bom.gov.au/fwo/IDW60801/IDW60801.94100.axf

JavaScript Object Notation format (JSON) in row-major order
http://www.bom.gov.au/fwo/IDW60801/IDW60801.94100.json